sensor_id;sensor_type;location;lat;lon;timestamp;P1;durP1;ratioP1;P2;durP2;ratioP2
37609;SDS011;23457;51.966;8.230;2022-11-20T00:00:49;44.63;;;22.25;;
37609;SDS011;23457;51.966;8.230;2022-11-20T00:03:16;43.75;;;19.77;;
37609;SDS011;23457;51.966;8.230;2022-11-20T00:05:43;42.05;;;19.58;;
37609;SDS011;23457;51.966;8.230;2022-11-20T00:08:10;35.67;;;18.42;;
37609;SDS011;23457;51.966;8.230;2022-11-20T00:10:41;35.08;;;17.02;;
37609;SDS011;23457;51.966;8.230;2022-11-20T00:13:07;38.35;;;18.10;;
37609;SDS011;23457;51.966;8.230;2022-11-20T00:15:34;40.17;;;18.90;;
37609;SDS011;23457;51.966;8.230;2022-11-20T00:18:01;40.38;;;19.15;;
37609;SDS011;23457;51.966;8.230;2022-11-20T00:20:27;35.17;;;18.10;;
37609;SDS011;23457;51.966;8.230;2022-11-20T00:22:54;36.95;;;17.13;;
37609;SDS011;23457;51.966;8.230;2022-11-20T00:25:21;40.35;;;18.23;;
37609;SDS011;23457;51.966;8.230;2022-11-20T00:27:47;35.47;;;17.50;;
37609;SDS011;23457;51.966;8.230;2022-11-20T00:30:14;33.78;;;17.80;;
37609;SDS011;23457;51.966;8.230;2022-11-20T00:32:41;33.90;;;16.98;;
37609;SDS011;23457;51.966;8.230;2022-11-20T00:35:08;34.60;;;17.08;;
37609;SDS011;23457;51.966;8.230;2022-11-20T00:37:34;38.92;;;19.10;;
37609;SDS011;23457;51.966;8.230;2022-11-20T00:40:01;35.88;;;17.23;;
37609;SDS011;23457;51.966;8.230;2022-11-20T00:42:28;35.80;;;17.08;;
37609;SDS011;23457;51.966;8.230;2022-11-20T00:44:55;38.05;;;17.98;;
37609;SDS011;23457;51.966;8.230;2022-11-20T00:47:21;33.58;;;17.48;;
37609;SDS011;23457;51.966;8.230;2022-11-20T00:49:48;34.15;;;16.90;;
37609;SDS011;23457;51.966;8.230;2022-11-20T00:52:14;32.50;;;16.13;;
37609;SDS011;23457;51.966;8.230;2022-11-20T00:54:41;36.20;;;17.92;;
37609;SDS011;23457;51.966;8.230;2022-11-20T00:57:08;31.17;;;16.88;;
37609;SDS011;23457;51.966;8.230;2022-11-20T00:59:34;33.42;;;16.73;;
37609;SDS011;23457;51.966;8.230;2022-11-20T01:02:01;33.22;;;17.17;;
37609;SDS011;23457;51.966;8.230;2022-11-20T01:04:28;33.75;;;17.33;;
37609;SDS011;23457;51.966;8.230;2022-11-20T01:06:55;41.53;;;18.15;;
37609;SDS011;23457;51.966;8.230;2022-11-20T01:09:22;36.75;;;17.75;;
37609;SDS011;23457;51.966;8.230;2022-11-20T01:11:49;34.53;;;18.48;;
37609;SDS011;23457;51.966;8.230;2022-11-20T01:14:17;43.25;;;19.42;;
37609;SDS011;23457;51.966;8.230;2022-11-20T01:19:15;35.33;;;18.00;;
37609;SDS011;23457;51.966;8.230;2022-11-20T01:21:48;36.92;;;17.38;;
37609;SDS011;23457;51.966;8.230;2022-11-20T01:24:17;36.40;;;17.27;;
37609;SDS011;23457;51.966;8.230;2022-11-20T01:26:46;42.08;;;18.60;;
37609;SDS011;23457;51.966;8.230;2022-11-20T01:29:16;33.67;;;16.95;;
37609;SDS011;23457;51.966;8.230;2022-11-20T01:31:45;34.15;;;16.92;;
37609;SDS011;23457;51.966;8.230;2022-11-20T01:34:13;35.83;;;16.67;;
37609;SDS011;23457;51.966;8.230;2022-11-20T01:36:42;33.65;;;16.38;;
37609;SDS011;23457;51.966;8.230;2022-11-20T01:39:11;31.20;;;17.00;;
37609;SDS011;23457;51.966;8.230;2022-11-20T01:41:43;31.98;;;16.88;;
37609;SDS011;23457;51.966;8.230;2022-11-20T01:47:15;27.05;;;13.25;;
37609;SDS011;23457;51.966;8.230;2022-11-20T01:49:48;32.83;;;16.25;;
37609;SDS011;23457;51.966;8.230;2022-11-20T01:52:20;33.25;;;16.17;;
37609;SDS011;23457;51.966;8.230;2022-11-20T01:54:55;31.65;;;15.65;;
37609;SDS011;23457;51.966;8.230;2022-11-20T01:57:27;34.10;;;17.23;;
37609;SDS011;23457;51.966;8.230;2022-11-20T01:59:58;34.90;;;16.85;;
37609;SDS011;23457;51.966;8.230;2022-11-20T02:02:37;32.92;;;17.45;;
37609;SDS011;23457;51.966;8.230;2022-11-20T02:08:00;37.53;;;17.27;;
37609;SDS011;23457;51.966;8.230;2022-11-20T02:10:28;33.90;;;16.90;;
37609;SDS011;23457;51.966;8.230;2022-11-20T02:12:55;33.58;;;16.65;;
37609;SDS011;23457;51.966;8.230;2022-11-20T02:15:41;36.75;;;17.70;;
37609;SDS011;23457;51.966;8.230;2022-11-20T02:18:09;34.72;;;17.92;;
37609;SDS011;23457;51.966;8.230;2022-11-20T02:20:38;35.42;;;16.45;;
37609;SDS011;23457;51.966;8.230;2022-11-20T02:23:10;35.50;;;16.83;;
37609;SDS011;23457;51.966;8.230;2022-11-20T02:25:43;36.55;;;17.23;;
37609;SDS011;23457;51.966;8.230;2022-11-20T02:28:12;37.28;;;17.17;;
37609;SDS011;23457;51.966;8.230;2022-11-20T02:30:39;33.88;;;17.98;;
37609;SDS011;23457;51.966;8.230;2022-11-20T02:33:06;30.45;;;16.60;;
37609;SDS011;23457;51.966;8.230;2022-11-20T02:38:01;37.00;;;17.92;;
37609;SDS011;23457;51.966;8.230;2022-11-20T02:40:29;37.97;;;17.35;;
37609;SDS011;23457;51.966;8.230;2022-11-20T02:42:55;35.95;;;18.00;;
37609;SDS011;23457;51.966;8.230;2022-11-20T02:45:23;33.15;;;17.42;;
37609;SDS011;23457;51.966;8.230;2022-11-20T02:47:51;39.95;;;18.35;;
37609;SDS011;23457;51.966;8.230;2022-11-20T02:50:18;38.08;;;17.42;;
37609;SDS011;23457;51.966;8.230;2022-11-20T02:52:44;43.92;;;21.00;;
37609;SDS011;23457;51.966;8.230;2022-11-20T02:55:11;45.25;;;19.77;;
37609;SDS011;23457;51.966;8.230;2022-11-20T02:57:38;40.10;;;18.35;;
37609;SDS011;23457;51.966;8.230;2022-11-20T03:00:05;42.17;;;19.60;;
37609;SDS011;23457;51.966;8.230;2022-11-20T03:02:33;40.95;;;19.73;;
37609;SDS011;23457;51.966;8.230;2022-11-20T03:05:00;43.45;;;19.27;;
37609;SDS011;23457;51.966;8.230;2022-11-20T03:07:27;41.75;;;17.58;;
37609;SDS011;23457;51.966;8.230;2022-11-20T03:09:54;42.00;;;18.58;;
37609;SDS011;23457;51.966;8.230;2022-11-20T03:12:20;36.38;;;17.80;;
37609;SDS011;23457;51.966;8.230;2022-11-20T03:14:47;61.38;;;23.77;;
37609;SDS011;23457;51.966;8.230;2022-11-20T03:17:18;55.33;;;23.48;;
37609;SDS011;23457;51.966;8.230;2022-11-20T03:19:45;60.53;;;24.48;;
37609;SDS011;23457;51.966;8.230;2022-11-20T03:22:11;79.57;;;30.60;;
37609;SDS011;23457;51.966;8.230;2022-11-20T03:24:38;64.70;;;24.60;;
37609;SDS011;23457;51.966;8.230;2022-11-20T03:27:05;60.97;;;22.90;;
37609;SDS011;23457;51.966;8.230;2022-11-20T03:29:31;59.50;;;22.90;;
37609;SDS011;23457;51.966;8.230;2022-11-20T03:31:58;54.47;;;22.42;;
37609;SDS011;23457;51.966;8.230;2022-11-20T03:34:25;49.50;;;20.67;;
37609;SDS011;23457;51.966;8.230;2022-11-20T03:36:52;48.55;;;20.75;;
37609;SDS011;23457;51.966;8.230;2022-11-20T03:39:18;56.75;;;20.90;;
37609;SDS011;23457;51.966;8.230;2022-11-20T03:41:45;47.20;;;19.33;;
37609;SDS011;23457;51.966;8.230;2022-11-20T03:44:12;44.90;;;19.38;;
37609;SDS011;23457;51.966;8.230;2022-11-20T03:46:39;40.28;;;18.17;;
37609;SDS011;23457;51.966;8.230;2022-11-20T03:49:06;42.22;;;17.30;;
37609;SDS011;23457;51.966;8.230;2022-11-20T03:51:34;34.95;;;16.80;;
37609;SDS011;23457;51.966;8.230;2022-11-20T03:54:03;31.65;;;14.30;;
37609;SDS011;23457;51.966;8.230;2022-11-20T03:56:34;35.97;;;16.27;;
37609;SDS011;23457;51.966;8.230;2022-11-20T04:01:31;34.65;;;15.45;;
37609;SDS011;23457;51.966;8.230;2022-11-20T04:04:00;33.70;;;14.75;;
37609;SDS011;23457;51.966;8.230;2022-11-20T04:06:28;36.22;;;14.73;;
37609;SDS011;23457;51.966;8.230;2022-11-20T04:08:56;31.38;;;14.88;;
37609;SDS011;23457;51.966;8.230;2022-11-20T04:11:25;38.33;;;14.88;;
37609;SDS011;23457;51.966;8.230;2022-11-20T04:13:57;30.25;;;14.95;;
37609;SDS011;23457;51.966;8.230;2022-11-20T04:16:26;30.77;;;14.65;;
37609;SDS011;23457;51.966;8.230;2022-11-20T13:56:28;25.23;;;14.27;;
37609;SDS011;23457;51.966;8.230;2022-11-20T14:01:40;24.95;;;14.10;;
37609;SDS011;23457;51.966;8.230;2022-11-20T14:04:15;34.53;;;18.90;;
37609;SDS011;23457;51.966;8.230;2022-11-20T14:06:47;27.65;;;15.85;;
37609;SDS011;23457;51.966;8.230;2022-11-20T14:09:26;24.75;;;15.23;;
37609;SDS011;23457;51.966;8.230;2022-11-20T14:11:54;26.23;;;15.43;;
37609;SDS011;23457;51.966;8.230;2022-11-20T14:14:22;25.80;;;15.05;;
37609;SDS011;23457;51.966;8.230;2022-11-20T14:16:52;29.35;;;16.42;;
37609;SDS011;23457;51.966;8.230;2022-11-20T14:21:52;27.45;;;15.63;;
37609;SDS011;23457;51.966;8.230;2022-11-20T14:24:37;25.58;;;14.65;;
37609;SDS011;23457;51.966;8.230;2022-11-20T14:27:04;24.70;;;14.18;;
37609;SDS011;23457;51.966;8.230;2022-11-20T14:29:38;28.40;;;15.55;;
37609;SDS011;23457;51.966;8.230;2022-11-20T14:32:15;29.95;;;15.95;;
37609;SDS011;23457;51.966;8.230;2022-11-20T14:34:44;29.45;;;16.30;;
37609;SDS011;23457;51.966;8.230;2022-11-20T14:37:13;29.75;;;16.17;;
37609;SDS011;23457;51.966;8.230;2022-11-20T14:39:50;31.83;;;16.10;;
37609;SDS011;23457;51.966;8.230;2022-11-20T14:42:19;28.33;;;15.13;;
37609;SDS011;23457;51.966;8.230;2022-11-20T14:44:47;27.52;;;16.10;;
37609;SDS011;23457;51.966;8.230;2022-11-20T14:47:17;31.95;;;17.15;;
37609;SDS011;23457;51.966;8.230;2022-11-20T14:49:47;30.30;;;16.77;;
37609;SDS011;23457;51.966;8.230;2022-11-20T14:54:58;28.58;;;15.88;;
37609;SDS011;23457;51.966;8.230;2022-11-20T14:57:27;31.50;;;16.35;;
37609;SDS011;23457;51.966;8.230;2022-11-20T15:02:44;28.05;;;15.95;;
37609;SDS011;23457;51.966;8.230;2022-11-20T15:05:12;32.00;;;19.08;;
37609;SDS011;23457;51.966;8.230;2022-11-20T15:07:41;27.98;;;16.45;;
37609;SDS011;23457;51.966;8.230;2022-11-20T15:10:13;30.95;;;17.58;;
37609;SDS011;23457;51.966;8.230;2022-11-20T15:12:53;29.02;;;16.85;;
37609;SDS011;23457;51.966;8.230;2022-11-20T15:15:36;29.48;;;17.00;;
37609;SDS011;23457;51.966;8.230;2022-11-20T15:18:13;31.95;;;17.73;;
37609;SDS011;23457;51.966;8.230;2022-11-20T15:20:42;30.55;;;17.60;;
37609;SDS011;23457;51.966;8.230;2022-11-20T15:23:11;30.05;;;17.20;;
37609;SDS011;23457;51.966;8.230;2022-11-20T15:25:41;31.52;;;18.50;;
37609;SDS011;23457;51.966;8.230;2022-11-20T15:28:12;37.38;;;20.02;;
37609;SDS011;23457;51.966;8.230;2022-11-20T15:30:47;31.08;;;18.33;;
37609;SDS011;23457;51.966;8.230;2022-11-20T15:33:16;36.05;;;19.77;;
37609;SDS011;23457;51.966;8.230;2022-11-20T15:35:43;31.83;;;17.17;;
37609;SDS011;23457;51.966;8.230;2022-11-20T15:38:10;33.47;;;18.95;;
37609;SDS011;23457;51.966;8.230;2022-11-20T15:40:37;32.28;;;18.00;;
37609;SDS011;23457;51.966;8.230;2022-11-20T15:43:04;34.10;;;18.33;;
37609;SDS011;23457;51.966;8.230;2022-11-20T15:45:42;32.42;;;17.85;;
37609;SDS011;23457;51.966;8.230;2022-11-20T15:48:16;33.65;;;19.20;;
37609;SDS011;23457;51.966;8.230;2022-11-20T15:53:29;48.35;;;27.25;;
37609;SDS011;23457;51.966;8.230;2022-11-20T15:55:56;42.90;;;24.52;;
37609;SDS011;23457;51.966;8.230;2022-11-20T15:58:22;40.25;;;22.73;;
37609;SDS011;23457;51.966;8.230;2022-11-20T16:00:50;41.50;;;24.38;;
37609;SDS011;23457;51.966;8.230;2022-11-20T16:03:17;45.95;;;26.60;;
37609;SDS011;23457;51.966;8.230;2022-11-20T16:05:44;39.80;;;23.17;;
37609;SDS011;23457;51.966;8.230;2022-11-20T16:08:11;38.03;;;21.58;;
37609;SDS011;23457;51.966;8.230;2022-11-20T16:10:38;36.92;;;20.40;;
37609;SDS011;23457;51.966;8.230;2022-11-20T16:13:09;39.17;;;22.15;;
37609;SDS011;23457;51.966;8.230;2022-11-20T16:16:01;39.20;;;21.92;;
37609;SDS011;23457;51.966;8.230;2022-11-20T16:18:40;41.90;;;22.35;;
37609;SDS011;23457;51.966;8.230;2022-11-20T16:21:10;41.65;;;22.70;;
37609;SDS011;23457;51.966;8.230;2022-11-20T16:23:39;41.33;;;22.67;;
37609;SDS011;23457;51.966;8.230;2022-11-20T16:26:10;40.20;;;22.60;;
37609;SDS011;23457;51.966;8.230;2022-11-20T16:28:37;40.20;;;21.65;;
37609;SDS011;23457;51.966;8.230;2022-11-20T16:31:14;39.15;;;21.27;;
37609;SDS011;23457;51.966;8.230;2022-11-20T16:33:42;37.88;;;21.75;;
37609;SDS011;23457;51.966;8.230;2022-11-20T16:36:10;37.63;;;20.80;;
37609;SDS011;23457;51.966;8.230;2022-11-20T16:38:38;38.08;;;21.10;;
37609;SDS011;23457;51.966;8.230;2022-11-20T16:41:05;39.65;;;22.05;;
37609;SDS011;23457;51.966;8.230;2022-11-20T16:43:32;38.70;;;21.48;;
37609;SDS011;23457;51.966;8.230;2022-11-20T16:45:59;39.25;;;20.52;;
37609;SDS011;23457;51.966;8.230;2022-11-20T16:48:29;38.67;;;21.05;;
37609;SDS011;23457;51.966;8.230;2022-11-20T16:50:56;37.25;;;21.10;;
37609;SDS011;23457;51.966;8.230;2022-11-20T16:53:22;36.33;;;20.90;;
37609;SDS011;23457;51.966;8.230;2022-11-20T16:55:49;36.33;;;20.13;;
37609;SDS011;23457;51.966;8.230;2022-11-20T16:58:16;36.72;;;20.65;;
37609;SDS011;23457;51.966;8.230;2022-11-20T17:00:42;39.28;;;19.77;;
37609;SDS011;23457;51.966;8.230;2022-11-20T17:03:17;37.70;;;20.75;;
37609;SDS011;23457;51.966;8.230;2022-11-20T17:05:44;38.05;;;20.88;;
37609;SDS011;23457;51.966;8.230;2022-11-20T17:08:11;40.50;;;21.38;;
37609;SDS011;23457;51.966;8.230;2022-11-20T17:10:37;38.13;;;21.17;;
37609;SDS011;23457;51.966;8.230;2022-11-20T17:13:04;41.00;;;22.35;;
37609;SDS011;23457;51.966;8.230;2022-11-20T17:15:31;38.75;;;22.40;;
37609;SDS011;23457;51.966;8.230;2022-11-20T17:17:57;45.42;;;22.38;;
37609;SDS011;23457;51.966;8.230;2022-11-20T17:20:24;41.58;;;22.23;;
37609;SDS011;23457;51.966;8.230;2022-11-20T17:22:50;38.72;;;22.92;;
37609;SDS011;23457;51.966;8.230;2022-11-20T17:25:17;39.90;;;21.17;;
37609;SDS011;23457;51.966;8.230;2022-11-20T17:27:44;35.60;;;20.42;;
37609;SDS011;23457;51.966;8.230;2022-11-20T17:30:10;38.58;;;21.20;;
37609;SDS011;23457;51.966;8.230;2022-11-20T17:32:37;34.65;;;19.45;;
37609;SDS011;23457;51.966;8.230;2022-11-20T17:35:05;38.83;;;19.73;;
37609;SDS011;23457;51.966;8.230;2022-11-20T17:37:32;34.92;;;19.55;;
37609;SDS011;23457;51.966;8.230;2022-11-20T17:39:58;34.55;;;19.00;;
37609;SDS011;23457;51.966;8.230;2022-11-20T17:42:25;37.75;;;20.25;;
37609;SDS011;23457;51.966;8.230;2022-11-20T17:44:52;43.97;;;22.98;;
37609;SDS011;23457;51.966;8.230;2022-11-20T17:47:18;33.95;;;19.83;;
37609;SDS011;23457;51.966;8.230;2022-11-20T17:49:47;36.55;;;19.55;;
37609;SDS011;23457;51.966;8.230;2022-11-20T17:52:20;36.17;;;20.50;;
37609;SDS011;23457;51.966;8.230;2022-11-20T17:54:47;35.38;;;19.67;;
37609;SDS011;23457;51.966;8.230;2022-11-20T17:57:14;35.92;;;19.05;;
37609;SDS011;23457;51.966;8.230;2022-11-20T17:59:59;35.33;;;18.60;;
37609;SDS011;23457;51.966;8.230;2022-11-20T18:02:26;32.28;;;18.45;;
37609;SDS011;23457;51.966;8.230;2022-11-20T18:04:52;34.92;;;18.25;;
37609;SDS011;23457;51.966;8.230;2022-11-20T18:07:19;34.83;;;19.75;;
37609;SDS011;23457;51.966;8.230;2022-11-20T18:09:46;34.58;;;18.85;;
37609;SDS011;23457;51.966;8.230;2022-11-20T18:12:12;38.33;;;18.70;;
37609;SDS011;23457;51.966;8.230;2022-11-20T18:14:39;34.58;;;18.70;;
37609;SDS011;23457;51.966;8.230;2022-11-20T18:17:08;36.13;;;17.77;;
37609;SDS011;23457;51.966;8.230;2022-11-20T18:19:38;34.38;;;17.63;;
37609;SDS011;23457;51.966;8.230;2022-11-20T18:22:28;33.80;;;17.35;;
37609;SDS011;23457;51.966;8.230;2022-11-20T18:24:56;33.67;;;17.23;;
37609;SDS011;23457;51.966;8.230;2022-11-20T18:27:23;34.97;;;16.67;;
37609;SDS011;23457;51.966;8.230;2022-11-20T18:29:50;37.90;;;18.45;;
37609;SDS011;23457;51.966;8.230;2022-11-20T18:32:20;38.97;;;20.85;;
37609;SDS011;23457;51.966;8.230;2022-11-20T18:34:48;37.40;;;21.05;;
37609;SDS011;23457;51.966;8.230;2022-11-20T18:37:15;36.15;;;19.63;;
37609;SDS011;23457;51.966;8.230;2022-11-20T18:39:42;41.58;;;20.80;;
37609;SDS011;23457;51.966;8.230;2022-11-20T18:42:13;43.92;;;22.23;;
37609;SDS011;23457;51.966;8.230;2022-11-20T18:45:02;49.67;;;25.17;;
37609;SDS011;23457;51.966;8.230;2022-11-20T18:47:31;46.50;;;23.95;;
37609;SDS011;23457;51.966;8.230;2022-11-20T18:50:03;47.10;;;23.80;;
37609;SDS011;23457;51.966;8.230;2022-11-20T18:52:32;40.22;;;21.80;;
37609;SDS011;23457;51.966;8.230;2022-11-20T18:55:00;40.22;;;21.60;;
37609;SDS011;23457;51.966;8.230;2022-11-20T18:57:28;41.40;;;21.73;;
37609;SDS011;23457;51.966;8.230;2022-11-20T18:59:55;38.47;;;20.25;;
37609;SDS011;23457;51.966;8.230;2022-11-20T19:02:30;38.38;;;20.63;;
37609;SDS011;23457;51.966;8.230;2022-11-20T19:05:03;37.22;;;19.27;;
37609;SDS011;23457;51.966;8.230;2022-11-20T19:07:30;38.42;;;21.20;;
37609;SDS011;23457;51.966;8.230;2022-11-20T19:09:57;39.47;;;20.67;;
37609;SDS011;23457;51.966;8.230;2022-11-20T19:12:29;38.95;;;20.48;;
37609;SDS011;23457;51.966;8.230;2022-11-20T19:14:56;37.60;;;18.48;;
37609;SDS011;23457;51.966;8.230;2022-11-20T19:17:22;39.33;;;18.77;;
37609;SDS011;23457;51.966;8.230;2022-11-20T19:19:49;40.55;;;19.92;;
37609;SDS011;23457;51.966;8.230;2022-11-20T19:22:16;39.10;;;20.05;;
37609;SDS011;23457;51.966;8.230;2022-11-20T19:24:43;36.35;;;19.25;;
37609;SDS011;23457;51.966;8.230;2022-11-20T19:27:09;38.42;;;19.10;;
37609;SDS011;23457;51.966;8.230;2022-11-20T19:29:36;40.88;;;19.92;;
37609;SDS011;23457;51.966;8.230;2022-11-20T19:32:03;38.83;;;20.00;;
37609;SDS011;23457;51.966;8.230;2022-11-20T19:34:30;38.40;;;20.70;;
37609;SDS011;23457;51.966;8.230;2022-11-20T19:36:57;40.63;;;20.00;;
37609;SDS011;23457;51.966;8.230;2022-11-20T19:39:25;33.17;;;15.70;;
37609;SDS011;23457;51.966;8.230;2022-11-20T19:41:52;47.47;;;22.98;;
37609;SDS011;23457;51.966;8.230;2022-11-20T19:44:19;44.78;;;22.17;;
37609;SDS011;23457;51.966;8.230;2022-11-20T19:46:46;40.83;;;21.77;;
37609;SDS011;23457;51.966;8.230;2022-11-20T19:49:13;56.15;;;26.45;;
37609;SDS011;23457;51.966;8.230;2022-11-20T19:51:44;47.08;;;23.00;;
37609;SDS011;23457;51.966;8.230;2022-11-20T19:54:14;47.10;;;23.55;;
37609;SDS011;23457;51.966;8.230;2022-11-20T19:56:42;44.45;;;20.95;;
37609;SDS011;23457;51.966;8.230;2022-11-20T19:59:10;50.78;;;21.60;;
37609;SDS011;23457;51.966;8.230;2022-11-20T20:01:37;43.90;;;20.58;;
37609;SDS011;23457;51.966;8.230;2022-11-20T20:04:05;42.58;;;20.33;;
37609;SDS011;23457;51.966;8.230;2022-11-20T20:06:33;45.03;;;22.65;;
37609;SDS011;23457;51.966;8.230;2022-11-20T20:09:02;40.78;;;20.80;;
37609;SDS011;23457;51.966;8.230;2022-11-20T20:11:31;40.03;;;19.08;;
37609;SDS011;23457;51.966;8.230;2022-11-20T20:14:03;39.15;;;19.70;;
37609;SDS011;23457;51.966;8.230;2022-11-20T20:16:31;39.65;;;19.20;;
37609;SDS011;23457;51.966;8.230;2022-11-20T20:18:58;37.83;;;18.83;;
37609;SDS011;23457;51.966;8.230;2022-11-20T20:21:27;39.67;;;18.63;;
37609;SDS011;23457;51.966;8.230;2022-11-20T20:23:56;41.15;;;19.17;;
37609;SDS011;23457;51.966;8.230;2022-11-20T20:26:23;46.47;;;20.60;;
37609;SDS011;23457;51.966;8.230;2022-11-20T20:28:51;39.28;;;18.73;;
37609;SDS011;23457;51.966;8.230;2022-11-20T20:31:19;43.33;;;19.83;;
37609;SDS011;23457;51.966;8.230;2022-11-20T20:33:48;39.15;;;19.83;;
37609;SDS011;23457;51.966;8.230;2022-11-20T20:36:16;42.25;;;19.70;;
37609;SDS011;23457;51.966;8.230;2022-11-20T20:38:44;43.38;;;20.02;;
37609;SDS011;23457;51.966;8.230;2022-11-20T20:41:17;39.78;;;19.13;;
37609;SDS011;23457;51.966;8.230;2022-11-20T20:43:44;44.85;;;19.63;;
37609;SDS011;23457;51.966;8.230;2022-11-20T20:46:30;36.13;;;18.20;;
37609;SDS011;23457;51.966;8.230;2022-11-20T20:48:58;36.20;;;18.23;;
37609;SDS011;23457;51.966;8.230;2022-11-20T20:51:24;42.20;;;19.83;;
37609;SDS011;23457;51.966;8.230;2022-11-20T20:53:51;37.25;;;18.95;;
37609;SDS011;23457;51.966;8.230;2022-11-20T20:56:18;41.97;;;19.08;;
37609;SDS011;23457;51.966;8.230;2022-11-20T20:58:45;36.08;;;18.23;;
37609;SDS011;23457;51.966;8.230;2022-11-20T21:01:13;32.70;;;15.98;;
37609;SDS011;23457;51.966;8.230;2022-11-20T21:03:40;30.27;;;15.90;;
37609;SDS011;23457;51.966;8.230;2022-11-20T21:06:08;34.08;;;16.15;;
37609;SDS011;23457;51.966;8.230;2022-11-20T21:08:36;31.73;;;16.15;;
37609;SDS011;23457;51.966;8.230;2022-11-20T21:11:07;32.95;;;15.95;;
37609;SDS011;23457;51.966;8.230;2022-11-20T21:13:36;28.73;;;14.65;;
37609;SDS011;23457;51.966;8.230;2022-11-20T21:16:04;32.67;;;16.52;;
37609;SDS011;23457;51.966;8.230;2022-11-20T21:18:31;29.67;;;15.88;;
37609;SDS011;23457;51.966;8.230;2022-11-20T21:20:58;32.45;;;17.23;;
37609;SDS011;23457;51.966;8.230;2022-11-20T21:23:44;30.90;;;16.77;;
37609;SDS011;23457;51.966;8.230;2022-11-20T21:26:12;34.15;;;17.27;;
37609;SDS011;23457;51.966;8.230;2022-11-20T21:28:40;34.97;;;16.40;;
37609;SDS011;23457;51.966;8.230;2022-11-20T21:31:08;32.80;;;16.98;;
37609;SDS011;23457;51.966;8.230;2022-11-20T21:36:08;29.45;;;15.80;;
37609;SDS011;23457;51.966;8.230;2022-11-20T21:38:36;28.23;;;16.00;;
37609;SDS011;23457;51.966;8.230;2022-11-20T21:41:03;31.55;;;15.77;;
37609;SDS011;23457;51.966;8.230;2022-11-20T21:43:31;30.23;;;16.35;;
37609;SDS011;23457;51.966;8.230;2022-11-20T21:48:28;36.03;;;18.83;;
37609;SDS011;23457;51.966;8.230;2022-11-20T21:51:00;36.55;;;18.08;;
37609;SDS011;23457;51.966;8.230;2022-11-20T21:53:32;33.83;;;17.33;;
37609;SDS011;23457;51.966;8.230;2022-11-20T21:55:59;34.22;;;17.98;;
37609;SDS011;23457;51.966;8.230;2022-11-20T21:58:26;36.58;;;18.33;;
37609;SDS011;23457;51.966;8.230;2022-11-20T22:00:53;34.83;;;18.35;;
37609;SDS011;23457;51.966;8.230;2022-11-20T22:03:20;35.17;;;18.95;;
37609;SDS011;23457;51.966;8.230;2022-11-20T22:05:54;38.22;;;18.98;;
37609;SDS011;23457;51.966;8.230;2022-11-20T22:08:22;40.15;;;19.90;;
37609;SDS011;23457;51.966;8.230;2022-11-20T22:10:56;40.63;;;20.35;;
37609;SDS011;23457;51.966;8.230;2022-11-20T22:13:24;41.47;;;20.80;;
37609;SDS011;23457;51.966;8.230;2022-11-20T22:16:10;40.92;;;21.25;;
37609;SDS011;23457;51.966;8.230;2022-11-20T22:18:44;39.03;;;20.92;;
37609;SDS011;23457;51.966;8.230;2022-11-20T22:21:12;43.97;;;22.02;;
37609;SDS011;23457;51.966;8.230;2022-11-20T22:23:40;48.72;;;24.45;;
37609;SDS011;23457;51.966;8.230;2022-11-20T22:26:08;48.30;;;24.73;;
37609;SDS011;23457;51.966;8.230;2022-11-20T22:28:39;49.75;;;24.35;;
37609;SDS011;23457;51.966;8.230;2022-11-20T22:31:07;48.58;;;25.45;;
37609;SDS011;23457;51.966;8.230;2022-11-20T22:33:36;51.00;;;25.67;;
37609;SDS011;23457;51.966;8.230;2022-11-20T22:38:32;49.55;;;24.92;;
37609;SDS011;23457;51.966;8.230;2022-11-20T22:43:41;54.10;;;26.13;;
37609;SDS011;23457;51.966;8.230;2022-11-20T22:46:11;52.92;;;25.75;;
37609;SDS011;23457;51.966;8.230;2022-11-20T22:48:39;52.90;;;26.08;;
37609;SDS011;23457;51.966;8.230;2022-11-20T22:51:11;51.10;;;24.55;;
37609;SDS011;23457;51.966;8.230;2022-11-20T22:53:39;50.95;;;26.05;;
37609;SDS011;23457;51.966;8.230;2022-11-20T22:56:08;49.85;;;24.77;;
37609;SDS011;23457;51.966;8.230;2022-11-20T22:58:38;51.45;;;26.95;;
37609;SDS011;23457;51.966;8.230;2022-11-20T23:01:10;54.35;;;25.98;;
37609;SDS011;23457;51.966;8.230;2022-11-20T23:03:45;50.80;;;25.02;;
37609;SDS011;23457;51.966;8.230;2022-11-20T23:06:14;51.22;;;25.55;;
37609;SDS011;23457;51.966;8.230;2022-11-20T23:08:43;45.78;;;23.73;;
37609;SDS011;23457;51.966;8.230;2022-11-20T23:11:11;51.83;;;25.38;;
37609;SDS011;23457;51.966;8.230;2022-11-20T23:13:43;45.58;;;23.58;;
37609;SDS011;23457;51.966;8.230;2022-11-20T23:16:12;49.42;;;24.45;;
37609;SDS011;23457;51.966;8.230;2022-11-20T23:18:43;47.60;;;23.85;;
37609;SDS011;23457;51.966;8.230;2022-11-20T23:21:10;51.53;;;25.38;;
37609;SDS011;23457;51.966;8.230;2022-11-20T23:23:38;49.67;;;25.07;;
37609;SDS011;23457;51.966;8.230;2022-11-20T23:26:07;53.22;;;24.30;;
37609;SDS011;23457;51.966;8.230;2022-11-20T23:28:36;51.22;;;24.75;;
37609;SDS011;23457;51.966;8.230;2022-11-20T23:31:04;47.05;;;23.00;;
37609;SDS011;23457;51.966;8.230;2022-11-20T23:33:34;50.20;;;24.88;;
37609;SDS011;23457;51.966;8.230;2022-11-20T23:36:01;56.67;;;26.65;;
37609;SDS011;23457;51.966;8.230;2022-11-20T23:38:29;50.85;;;24.77;;
37609;SDS011;23457;51.966;8.230;2022-11-20T23:40:56;44.88;;;21.00;;
37609;SDS011;23457;51.966;8.230;2022-11-20T23:43:23;57.00;;;26.80;;
37609;SDS011;23457;51.966;8.230;2022-11-20T23:45:53;56.10;;;26.73;;
37609;SDS011;23457;51.966;8.230;2022-11-20T23:48:23;55.53;;;26.73;;
37609;SDS011;23457;51.966;8.230;2022-11-20T23:50:53;56.50;;;27.25;;
37609;SDS011;23457;51.966;8.230;2022-11-20T23:53:20;54.25;;;26.55;;
37609;SDS011;23457;51.966;8.230;2022-11-20T23:55:49;54.28;;;26.98;;
37609;SDS011;23457;51.966;8.230;2022-11-20T23:58:20;58.85;;;27.92;;
